Onaga, KS (66521)

7:44 PM CDT on March 29, 2017 (GMT -0500)
Green House | | Change Station
Active Advisory: Flood Warning Active Notice: Public Information Statement

Elev 1296 ft 39.62 °N, 95.88 °W | Updated 19 seconds ago

Overcast
Overcast
47.5 °F
Feels Like 43 °F
N
10.0
Wind Variable Wind from NE

Today
High -- | Low -- °F
--% Chance of Precip.
Yesterday
High -- | Low -- °F
Precip. -- in
Pressure 29.63 in
Visibility 5.0 miles
Clouds Overcast 500 ft
Windchill 43 °F
Dew Point 47 °F
Humidity 98%
Rainfall 1.84 in
Snow Depth Not available.
7:13 AM 7:45 PM
Waxing Crescent, 5% visible
SPECI KMHK 300035Z 02012G20KT 5SM VCTS RA BR OVC005 08/07 A2963 RMK AO2 LTG DSNT SW RAB2354 P0002 T00830072
Pressure 29.63 in
Visibility 5.0 miles
Clouds Overcast 500 ft
Windchill 43 °F
Dew Point 47 °F
Humidity 98%
Rainfall 1.84 in
Snow Depth Not available.
7:13 AM 7:45 PM
Waxing Crescent, 5% visible
SPECI KMHK 300035Z 02012G20KT 5SM VCTS RA BR OVC005 08/07 A2963 RMK AO2 LTG DSNT SW RAB2354 P0002 T00830072

Get Your Daily Forecast Email!

Thanks for signing up!

Be on the lookout for a verification email in your inbox.

You'll start receiving severe weather alerts in your inbox..

×

10-Day Weather Forecast

Almanac

Astronomy

Mar. 29, 2017 Rise Set
Actual Time
Civil Twilight
Nautical Twilight
Astronomical Twilight
Moon
Length of Visible Light
Length of Day
Tomorrow will be .
, % of the Moon is Illuminated

Today's Extremes

State Highs State Lows

Community

WunderPhotos

Upload Photos

1,962,540 photos uploaded!

WunderBlog® & News

Nearby

Air Quality

  Air Quality AQ Index Pollutant
Not available.

Snow Depth

Station Depth Elevation

Earthquake Activity

City Distance Mag. Time & Date
Minimum magnitude displayed is 2.5.

Earthquake Activity

City Distance Mag. Time & Date
Minimum magnitude displayed is 2.5.

Coastal Water Temperatures

Place Temperature

Stations

Nearby Weather Stations

Station Location Temp. Windchill Dew Point Humidity Wind Precip. Elev Updated Type
                   

Watches & Warnings

Flood Warning
Issued: 3:33 PM CDT Mar. 29, 2017 – National Weather Service

The Flood Warning continues for
the Vermillion creek near Louisville.
* From this evening to Thursday evening.
* Flood stage is 30.0 feet.
* Forecast... the river is forecast to have a maximum value of 31.2
feet early Thursday morning.
* Impact... at 30.0 feet... low land flooding occurs near the creek.


Lat... Lon 3933 9622 3933 9619 3929 9621 3926 9625 3927 9626